createdAt,value
2022-09-28T00:16:59.290Z,100
2022-09-28T00:36:38.147Z,100
2022-09-28T00:56:13.617Z,100
2022-09-28T01:16:55.429Z,100
2022-09-28T01:36:31.814Z,100
2022-09-28T01:57:06.990Z,100
2022-09-28T02:16:42.199Z,100
2022-09-28T02:36:21.350Z,100
2022-09-28T02:57:24.794Z,100
2022-09-28T03:16:48.188Z,100
2022-09-28T03:36:16.411Z,100
2022-09-28T03:57:09.038Z,100
2022-09-28T04:17:21.609Z,100
2022-09-28T04:36:22.264Z,100
2022-09-28T04:57:12.477Z,100
2022-09-28T05:17:02.604Z,100
2022-09-28T05:36:18.586Z,100
2022-09-28T05:57:31.626Z,100
2022-09-28T06:16:28.504Z,100
2022-09-28T06:36:54.139Z,100
2022-09-28T06:56:50.082Z,100
2022-09-28T07:16:11.213Z,100
2022-09-28T07:35:51.965Z,100
2022-09-28T07:57:27.009Z,100
2022-09-28T08:17:28.404Z,100
2022-09-28T08:56:07.011Z,100
2022-09-28T09:16:09.173Z,100
2022-09-28T09:36:52.995Z,100
2022-09-28T09:56:04.933Z,100
2022-09-28T10:16:51.701Z,100
2022-09-28T10:35:36.886Z,100
2022-09-28T10:57:02.384Z,100
2022-09-28T11:17:10.345Z,100
2022-09-28T11:37:14.525Z,100
2022-09-28T11:57:07.264Z,99
2022-09-28T12:17:07.583Z,92.8
2022-09-28T12:37:15.931Z,84.4
2022-09-28T12:56:05.488Z,74.4
2022-09-28T13:17:39.970Z,68.1
2022-09-28T13:37:05.634Z,83.8
2022-09-28T13:57:56.846Z,80.7
2022-09-28T14:17:00.622Z,72.8
2022-09-28T14:35:59.949Z,70.8
2022-09-28T14:57:12.298Z,67.8
2022-09-28T15:17:33.649Z,70.2
2022-09-28T15:35:59.612Z,73.1
2022-09-28T15:57:04.439Z,75.9
2022-09-28T16:16:17.533Z,75.3
2022-09-28T16:36:33.123Z,75.6
2022-09-28T16:57:10.244Z,76.9
2022-09-28T17:17:06.450Z,79.8
2022-09-28T17:36:31.152Z,82.1
2022-09-28T17:57:53.634Z,82.5
2022-09-28T18:16:38.068Z,84.6
2022-09-28T18:36:20.360Z,86.9
2022-09-28T18:57:39.183Z,89.2
2022-09-28T19:16:50.592Z,90.5
2022-09-28T19:36:43.071Z,91.7
2022-09-28T19:56:36.991Z,93.1
2022-09-28T20:17:48.047Z,93.5
2022-09-28T20:36:21.335Z,94.2
2022-09-28T20:56:53.139Z,94.5
2022-09-28T21:16:55.989Z,94.8
2022-09-28T21:37:36.780Z,94.8
2022-09-28T21:57:06.052Z,95
2022-09-28T22:16:47.904Z,94.9
2022-09-28T22:36:20.223Z,95.1
2022-09-28T22:56:45.237Z,95
2022-09-28T23:17:33.943Z,95.1
2022-09-28T23:35:53.579Z,95.3
2022-09-28T23:57:37.593Z,95.8
